Time;durP1;ratioP1;P1;durP2;ratioP2;P2;SDS_P1;SDS_P2;PMS_P1;PMS_P2;Temp;Humidity;BMP_temperature;BMP_pressure;BME280_temperature;BME280_humidity;BME280_pressure;Samples;Min_cycle;Max_cycle;Signal;HPM_P1;HPM_P2
2023/06/15 00:01:05;;;;;;;1999.90;999.90;;;;;;;15.11;100.00;95196.75;5067036;28;20197;-66
2023/06/15 00:03:31;;;;;;;1999.90;999.90;;;;;;;15.08;100.00;95205.84;5066425;28;20181;-66
2023/06/15 00:05:56;;;;;;;1999.90;999.90;;;;;;;15.03;100.00;95195.41;5066485;28;20237;-66
2023/06/15 00:08:22;;;;;;;1999.90;999.90;;;;;;;14.99;100.00;95196.72;5066925;28;20177;-66
2023/06/15 00:10:47;;;;;;;1999.90;999.90;;;;;;;14.93;100.00;95199.22;5066524;28;20204;-70
2023/06/15 00:13:14;;;;;;;1999.90;999.90;;;;;;;14.94;100.00;95208.25;5066176;28;20243;-66
2023/06/15 00:15:39;;;;;;;1999.90;999.90;;;;;;;14.83;100.00;95200.28;5066494;28;20248;-66
2023/06/15 00:18:05;;;;;;;1999.90;999.90;;;;;;;14.82;100.00;95201.50;5066772;28;20174;-66
2023/06/15 00:20:31;;;;;;;1999.90;999.90;;;;;;;14.78;100.00;95208.28;5066649;28;20224;-66
2023/06/15 00:22:58;;;;;;;1999.90;999.90;;;;;;;14.74;100.00;95204.88;5066178;28;20205;-66
2023/06/15 00:25:24;;;;;;;1999.90;999.90;;;;;;;14.71;100.00;95214.00;5065888;28;20174;-66
2023/06/15 00:27:50;;;;;;;1999.90;999.90;;;;;;;14.65;100.00;95216.50;5065954;28;20257;-67
2023/06/15 00:30:16;;;;;;;1999.90;999.90;;;;;;;14.64;100.00;95206.69;5066418;28;20205;-66
2023/06/15 00:32:42;;;;;;;1999.90;999.90;;;;;;;14.66;100.00;95209.03;5066451;28;20182;-66
2023/06/15 00:35:08;;;;;;;1999.90;999.90;;;;;;;14.61;100.00;95207.56;5065942;28;20178;-66
2023/06/15 00:37:33;;;;;;;1999.90;999.90;;;;;;;14.60;100.00;95210.78;5066435;28;20196;-66
2023/06/15 00:39:59;;;;;;;1999.90;999.90;;;;;;;14.54;100.00;95212.50;5065743;28;20177;-66
2023/06/15 00:42:24;;;;;;;1999.90;999.90;;;;;;;14.52;100.00;95214.88;5066303;28;20181;-66
2023/06/15 00:44:50;;;;;;;1999.90;999.90;;;;;;;14.49;100.00;95219.28;5065743;28;20174;-67
2023/06/15 00:47:21;;;;;;;1999.90;999.90;;;;;;;14.46;100.00;95222.88;5065213;28;20204;-66
2023/06/15 00:49:47;;;;;;;1999.90;999.90;;;;;;;14.43;100.00;95218.28;5065887;28;20265;-66
2023/06/15 00:52:14;;;;;;;1999.90;999.90;;;;;;;14.42;100.00;95222.22;5065498;28;20205;-66
2023/06/15 00:54:40;;;;;;;1999.90;999.90;;;;;;;14.39;100.00;95228.56;5065948;28;20178;-67
2023/06/15 00:57:08;;;;;;;1999.90;999.90;;;;;;;14.36;100.00;95229.44;5065949;28;20197;-66
2023/06/15 00:59:34;;;;;;;1999.90;999.90;;;;;;;14.32;100.00;95217.78;5065466;28;20178;-66
2023/06/15 01:01:59;;;;;;;1999.90;999.90;;;;;;;14.28;100.00;95233.56;5065885;28;20178;-66
2023/06/15 01:04:25;;;;;;;1999.90;999.90;;;;;;;14.25;100.00;95223.44;5065394;28;20249;-66
2023/06/15 01:06:56;;;;;;;1999.90;999.90;;;;;;;14.22;100.00;95221.56;5065675;28;20181;-66
2023/06/15 01:09:23;;;;;;;1999.90;999.90;;;;;;;14.20;100.00;95228.66;5065753;28;20206;-66
2023/06/15 01:11:52;;;;;;;1999.90;999.90;;;;;;;14.20;100.00;95231.41;5065562;28;20249;-66
2023/06/15 01:14:20;;;;;;;1999.90;999.90;;;;;;;14.24;100.00;95224.63;5064985;28;20193;-66
2023/06/15 01:16:52;;;;;;;1999.90;999.90;;;;;;;14.25;100.00;95219.91;5065008;28;20222;-66
2023/06/15 01:19:32;;;;;;;1999.90;999.90;;;;;;;14.28;100.00;95216.31;5065642;28;20249;-66
2023/06/15 01:22:07;;;;;;;1999.90;999.90;;;;;;;14.24;100.00;95221.88;5065497;28;20174;-66
2023/06/15 01:24:36;;;;;;;1999.90;999.90;;;;;;;14.18;100.00;95226.34;5065512;28;20213;-66
2023/06/15 01:27:04;;;;;;;1999.90;999.90;;;;;;;14.13;100.00;95217.84;5064574;28;20246;-66
2023/06/15 01:29:32;;;;;;;1999.90;999.90;;;;;;;14.09;100.00;95220.66;5064869;28;20208;-66
2023/06/15 01:31:58;;;;;;;1999.90;999.90;;;;;;;14.08;100.00;95212.84;5064732;28;20228;-66
2023/06/15 01:34:24;;;;;;;1999.90;999.90;;;;;;;14.07;100.00;95212.09;5064844;28;20180;-66
2023/06/15 01:36:50;;;;;;;1999.90;999.90;;;;;;;14.04;100.00;95212.94;5065163;28;20174;-67
2023/06/15 01:39:16;;;;;;;1999.90;999.90;;;;;;;14.02;100.00;95204.34;5064788;28;20223;-66
2023/06/15 01:41:42;;;;;;;1999.90;999.90;;;;;;;14.00;100.00;95201.28;5065125;28;20178;-66
2023/06/15 01:44:08;;;;;;;1999.90;999.90;;;;;;;13.99;100.00;95199.72;5065111;28;20197;-66
2023/06/15 01:46:34;;;;;;;1999.90;999.90;;;;;;;13.99;100.00;95199.72;5064549;28;20178;-65
2023/06/15 01:49:01;;;;;;;1999.90;999.90;;;;;;;13.99;100.00;95196.97;5065306;28;20255;-66
2023/06/15 01:51:29;;;;;;;1999.90;999.90;;;;;;;13.96;100.00;95203.34;5064339;28;20343;-65
2023/06/15 01:53:55;;;;;;;1999.90;999.90;;;;;;;13.89;100.00;95206.25;5064484;28;20178;-66
2023/06/15 01:56:20;;;;;;;1999.90;999.90;;;;;;;13.86;100.00;95206.31;5064860;28;20170;-66
2023/06/15 01:58:45;;;;;;;1999.90;999.90;;;;;;;13.82;100.00;95211.13;5063681;28;20174;-65
2023/06/15 02:01:11;;;;;;;1999.90;999.90;;;;;;;13.80;100.00;95205.31;5064300;28;20170;-66
2023/06/15 02:03:36;;;;;;;1999.90;999.90;;;;;;;13.77;100.00;95209.66;5065064;28;20200;-65
2023/06/15 02:06:01;;;;;;;1999.90;999.90;;;;;;;13.75;100.00;95206.59;5063809;28;20178;-65
2023/06/15 02:08:27;;;;;;;1999.90;999.90;;;;;;;13.74;100.00;95205.06;5064260;28;20170;-65
2023/06/15 02:10:52;;;;;;;1999.90;999.90;;;;;;;13.75;100.00;95206.59;5064618;28;20225;-66
2023/06/15 02:13:17;;;;;;;1999.90;999.90;;;;;;;13.75;100.00;95209.34;5064035;28;20198;-65
2023/06/15 02:15:43;;;;;;;1999.90;999.90;;;;;;;13.74;100.00;95209.75;5064192;28;20226;-66
2023/06/15 02:18:15;;;;;;;1999.90;999.90;;;;;;;13.72;100.00;95217.63;5064624;28;20181;-66
2023/06/15 02:20:41;;;;;;;1999.90;999.90;;;;;;;13.69;100.00;95219.28;5064828;28;20197;-65
2023/06/15 02:23:07;;;;;;;1999.90;999.90;;;;;;;13.61;100.00;95217.09;5064388;28;20182;-66
2023/06/15 02:25:33;;;;;;;1999.90;999.90;;;;;;;13.59;100.00;95222.25;5063858;28;20174;-66
2023/06/15 02:27:58;;;;;;;1999.90;999.90;;;;;;;13.59;100.00;95223.03;5063885;28;20174;-66
2023/06/15 02:30:27;;;;;;;1999.90;999.90;;;;;;;13.63;100.00;95220.22;5064249;28;20267;-65
2023/06/15 02:32:53;;;;;;;1999.90;999.90;;;;;;;13.59;100.00;95223.03;5063803;28;20182;-66
2023/06/15 02:35:19;;;;;;;1999.90;999.90;;;;;;;13.59;100.00;95209.31;5064382;28;20182;-67
2023/06/15 02:37:45;;;;;;;1999.90;999.90;;;;;;;13.60;100.00;95226.53;5063777;28;20256;-66
2023/06/15 02:40:11;;;;;;;1999.90;999.90;;;;;;;13.58;100.00;95218.75;5064210;28;20174;-66
2023/06/15 02:42:38;;;;;;;1999.90;999.90;;;;;;;13.60;100.00;95215.56;5064269;28;20182;-65
2023/06/15 02:45:06;;;;;;;1999.90;999.90;;;;;;;13.58;100.00;95213.25;5063672;28;20174;-66
2023/06/15 02:47:33;;;;;;;1999.90;999.90;;;;;;;13.59;100.00;95211.28;5063647;28;20204;-65
2023/06/15 02:49:59;;;;;;;1999.90;999.90;;;;;;;13.56;100.00;95215.66;5063697;28;20197;-66
2023/06/15 02:52:30;;;;;;;1999.90;999.90;;;;;;;13.57;100.00;95217.19;5063736;28;20188;-65
2023/06/15 02:54:56;;;;;;;1999.90;999.90;;;;;;;13.56;100.00;95223.13;5064160;28;20170;-66
2023/06/15 02:57:21;;;;;;;1999.90;999.90;;;;;;;13.54;100.00;95218.03;5063696;28;20180;-65
2023/06/15 02:59:46;;;;;;;1999.90;999.90;;;;;;;13.54;100.00;95229.03;5063996;28;20177;-66
2023/06/15 03:02:12;;;;;;;1999.90;999.90;;;;;;;13.54;100.00;95220.78;5064288;28;20196;-66
2023/06/15 03:04:44;;;;;;;1999.90;999.90;;;;;;;13.52;100.00;95220.47;5063609;28;20169;-66
2023/06/15 03:07:11;;;;;;;1999.90;999.90;;;;;;;13.51;100.00;95218.91;5064290;28;20220;-66
2023/06/15 03:09:36;;;;;;;1999.90;999.90;;;;;;;13.52;100.00;95225.16;5063998;28;20197;-65
2023/06/15 03:12:02;;;;;;;1999.90;999.90;;;;;;;13.50;100.00;95222.84;5067552;28;20248;-66
2023/06/15 03:14:28;;;;;;;1999.90;999.90;;;;;;;13.49;100.00;95226.78;5067303;28;20506;-65
2023/06/15 03:16:54;;;;;;;1999.90;999.90;;;;;;;13.49;100.00;95235.03;5067174;28;20217;-66
2023/06/15 03:19:19;;;;;;;1999.90;999.90;;;;;;;13.48;100.00;95230.75;5068105;28;20174;-65
2023/06/15 03:21:47;;;;;;;1999.90;999.90;;;;;;;13.41;100.00;95236.38;5067324;28;20219;-65
2023/06/15 03:24:13;;;;;;;1999.90;999.90;;;;;;;13.46;100.00;95238.63;5067192;28;20181;-65
2023/06/15 03:26:43;;;;;;;1999.90;999.90;;;;;;;13.50;100.00;95233.81;5067232;28;20170;-65
2023/06/15 03:29:08;;;;;;;1999.90;999.90;;;;;;;13.49;100.00;95237.75;5067500;28;20174;-65
2023/06/15 03:31:40;;;;;;;1999.90;999.90;;;;;;;13.51;100.00;95240.09;5067156;28;20177;-65
2023/06/15 03:34:07;;;;;;;1999.90;999.90;;;;;;;13.61;100.00;95237.09;5067099;28;20170;-65
2023/06/15 03:36:32;;;;;;;1999.90;999.90;;;;;;;13.77;100.00;95242.59;5067033;28;20185;-66
2023/06/15 03:38:58;;;;;;;1999.90;999.90;;;;;;;14.00;100.00;95238.94;5066977;28;20174;-65
2023/06/15 03:41:27;;;;;;;1999.90;999.90;;;;;;;14.15;100.00;95240.13;5067498;28;20177;-63
2023/06/15 03:43:52;;;;;;;1999.90;999.90;;;;;;;14.19;100.00;95236.13;5067246;28;20173;-65
2023/06/15 03:46:18;;;;;;;1999.90;999.90;;;;;;;14.17;100.00;95243.25;5067386;28;20178;-63
2023/06/15 03:48:43;;;;;;;1999.90;999.90;;;;;;;14.15;100.00;95257.41;5067300;28;20178;-64
2023/06/15 03:51:09;;;;;;;1999.90;999.90;;;;;;;14.13;100.00;95248.81;5067108;28;20265;-65
2023/06/15 03:53:36;;;;;;;1999.90;999.90;;;;;;;14.13;100.00;95257.03;5067262;28;20177;-66
2023/06/15 03:56:01;;;;;;;1999.90;999.90;;;;;;;14.17;100.00;95256.97;5067090;28;20170;-65
2023/06/15 03:58:27;;;;;;;1999.90;999.90;;;;;;;14.17;100.00;95254.97;5066646;28;20199;-64
2023/06/15 04:00:52;;;;;;;1999.90;999.90;;;;;;;14.24;100.00;95254.84;5066554;28;20232;-65
2023/06/15 04:03:18;;;;;;;1999.90;999.90;;;;;;;14.26;100.00;95266.19;5066365;28;20201;-66
2023/06/15 04:05:43;;;;;;;1999.90;999.90;;;;;;;14.35;100.00;95266.34;5066675;28;20202;-66
2023/06/15 04:08:09;;;;;;;1999.90;999.90;;;;;;;14.45;100.00;95270.81;5066379;28;20233;-66
2023/06/15 04:10:35;;;;;;;1999.90;999.90;;;;;;;14.47;100.00;95273.91;5066379;28;20206;-67
2023/06/15 04:13:00;;;;;;;1999.90;999.90;;;;;;;14.51;100.00;95274.59;5066467;28;20261;-66
2023/06/15 04:15:26;;;;;;;1999.90;999.90;;;;;;;14.51;100.00;95280.09;5066447;28;20200;-66
2023/06/15 04:17:51;;;;;;;1999.90;999.90;;;;;;;14.59;100.00;95275.94;5066711;28;20197;-65
2023/06/15 04:20:16;;;;;;;1999.90;999.90;;;;;;;14.71;100.00;95279.97;5066142;28;20174;-66
2023/06/15 04:22:42;;;;;;;1999.90;999.90;;;;;;;14.82;100.00;95283.97;5065264;28;20206;-66
2023/06/15 04:25:08;;;;;;;1999.90;999.90;;;;;;;15.32;100.00;95284.19;5066038;28;20174;-66
2023/06/15 04:27:34;;;;;;;1999.90;999.90;;;;;;;15.81;100.00;95293.75;5066587;28;20174;-66
2023/06/15 04:30:00;;;;;;;1999.90;999.90;;;;;;;15.89;100.00;95289.59;5065908;28;20208;-65
2023/06/15 04:32:25;;;;;;;1999.90;999.90;;;;;;;15.96;100.00;95296.88;5066405;28;20204;-66
2023/06/15 04:34:54;;;;;;;1999.90;999.90;;;;;;;15.95;100.00;95298.84;5065883;28;20169;-66
2023/06/15 04:37:20;;;;;;;1999.90;999.90;;;;;;;15.89;100.00;95300.59;5065721;28;20267;-66
2023/06/15 04:39:46;;;;;;;1999.90;999.90;;;;;;;15.88;100.00;95304.56;5065766;28;20174;-66
2023/06/15 04:42:12;;;;;;;1999.90;999.90;;;;;;;16.30;100.00;95300.53;5065703;28;20170;-66
2023/06/15 04:44:37;;;;;;;1999.90;999.90;;;;;;;16.65;100.00;95311.63;5065828;28;20241;-66
2023/06/15 04:47:06;;;;;;;1999.90;999.90;;;;;;;16.59;100.00;95305.13;5065977;28;20216;-66
2023/06/15 04:49:31;;;;;;;1999.90;999.90;;;;;;;16.46;100.00;95309.91;5065577;28;20208;-66
2023/06/15 04:51:57;;;;;;;1999.90;999.90;;;;;;;16.44;100.00;95308.34;5066075;28;20205;-66
2023/06/15 04:54:22;;;;;;;1999.90;999.90;;;;;;;16.39;100.00;95317.16;5066010;28;20174;-66
2023/06/15 04:56:48;;;;;;;1999.90;999.90;;;;;;;16.39;100.00;95308.88;5065860;28;20173;-66
2023/06/15 04:59:13;;;;;;;1999.90;999.90;;;;;;;16.42;100.00;95313.53;5065874;28;20174;-66
2023/06/15 05:01:39;;;;;;;1999.90;999.90;;;;;;;16.39;100.00;95308.09;5065354;28;20170;-66
2023/06/15 05:04:05;;;;;;;1999.90;999.90;;;;;;;16.32;100.00;95309.09;5065315;28;20188;-66
2023/06/15 05:06:30;;;;;;;1999.90;999.90;;;;;;;16.28;100.00;95313.97;5066064;28;20178;-66
2023/06/15 05:08:55;;;;;;;1999.90;999.90;;;;;;;16.46;100.00;95315.41;5065458;28;20176;-67
2023/06/15 05:11:21;;;;;;;1999.90;999.90;;;;;;;16.63;100.00;95319.56;5065119;28;20202;-66
2023/06/15 05:13:46;;;;;;;1999.90;999.90;;;;;;;16.79;100.00;95322.97;5064986;28;20189;-66
2023/06/15 05:16:11;;;;;;;1999.90;999.90;;;;;;;16.97;100.00;95314.09;5065501;28;20217;-66
2023/06/15 05:18:37;;;;;;;1999.90;999.90;;;;;;;17.03;100.00;95320.59;5064942;28;20176;-67
2023/06/15 05:21:03;;;;;;;1999.90;999.90;;;;;;;17.16;100.00;95315.81;5064958;28;20177;-69
2023/06/15 05:23:28;;;;;;;1999.90;999.90;;;;;;;17.15;100.00;95319.78;5064909;28;20244;-71
2023/06/15 05:25:54;;;;;;;1999.90;999.90;;;;;;;17.08;100.00;95328.31;5064825;28;20170;-71
2023/06/15 05:28:20;;;;;;;1999.90;999.90;;;;;;;17.06;100.00;95322.47;5065270;28;20198;-71
2023/06/15 05:30:45;;;;;;;1999.90;999.90;;;;;;;17.22;100.00;95334.09;5064370;28;20201;-69
2023/06/15 05:33:11;;;;;;;1999.90;999.90;;;;;;;17.41;100.00;95335.81;5063996;28;20166;-70
2023/06/15 05:35:36;;;;;;;1999.90;999.90;;;;;;;17.50;100.00;95329.59;5064678;28;20197;-72
2023/06/15 05:38:02;;;;;;;1999.90;999.90;;;;;;;17.62;100.00;95334.28;5064531;28;20166;-69
2023/06/15 05:40:27;;;;;;;1999.90;999.90;;;;;;;17.72;100.00;95330.38;5064475;28;20170;-72
2023/06/15 05:42:54;;;;;;;1999.90;999.90;;;;;;;17.87;100.00;95325.84;5064876;28;20185;-72
2023/06/15 05:45:20;;;;;;;1999.90;999.90;;;;;;;17.87;100.00;95334.13;5064349;28;20170;-71
2023/06/15 05:47:45;;;;;;;1999.90;999.90;;;;;;;17.86;100.00;95332.59;5064170;28;20176;-70
2023/06/15 05:50:11;;;;;;;1999.90;999.90;;;;;;;17.80;100.00;95337.94;5064187;28;20189;-69
2023/06/15 05:52:36;;;;;;;1999.90;999.90;;;;;;;17.87;100.00;95345.19;5064789;28;20227;-72
2023/06/15 05:55:01;;;;;;;1999.90;999.90;;;;;;;18.13;100.00;95346.56;5064241;28;20169;-70
2023/06/15 05:57:27;;;;;;;1999.90;999.90;;;;;;;18.40;100.00;95343.97;5064689;28;20216;-71
2023/06/15 05:59:52;;;;;;;1999.90;999.90;;;;;;;18.81;100.00;95344.28;5064068;28;20181;-68
2023/06/15 06:02:17;;;;;;;1999.90;999.90;;;;;;;18.93;100.00;95342.59;5064509;28;20182;-70
2023/06/15 06:04:43;;;;;;;1999.90;999.90;;;;;;;19.06;100.00;95351.56;5064550;28;20166;-68
2023/06/15 06:07:10;;;;;;;1999.90;999.90;;;;;;;18.71;100.00;95351.00;5064102;28;20174;-69
2023/06/15 06:09:37;;;;;;;1999.90;999.90;;;;;;;19.00;100.00;95354.16;5064018;28;20198;-71
2023/06/15 06:12:03;;;;;;;1999.90;999.90;;;;;;;19.49;100.00;95340.25;5063869;28;20174;-70
2023/06/15 06:14:28;;;;;;;1999.90;999.90;;;;;;;19.94;100.00;95350.50;5063916;28;20193;-70
2023/06/15 06:16:57;;;;;;;1999.90;999.90;;;;;;;20.27;100.00;95349.38;5063732;28;20217;-71
2023/06/15 06:19:23;;;;;;;1999.90;999.90;;;;;;;20.39;100.00;95356.75;5063896;28;20169;-70
2023/06/15 06:21:49;;;;;;;1999.90;999.90;;;;;;;20.11;100.00;95355.31;5064334;28;20173;-70
2023/06/15 06:24:15;;;;;;;1999.90;999.90;;;;;;;20.27;100.00;95360.47;5063728;28;20174;-71
2023/06/15 06:26:40;;;;;;;1999.90;999.90;;;;;;;20.51;100.00;95366.91;5063911;28;20169;-69
2023/06/15 06:29:05;;;;;;;1999.90;999.90;;;;;;;21.05;100.00;95363.88;5064301;28;20237;-71
2023/06/15 06:31:31;;;;;;;1999.90;999.90;;;;;;;20.71;100.00;95372.66;5064213;28;20281;-70
2023/06/15 06:33:56;;;;;;;1999.90;999.90;;;;;;;20.56;100.00;95371.03;5064180;28;20186;-71
2023/06/15 06:36:21;;;;;;;1999.90;999.90;;;;;;;20.27;100.00;95373.56;5063780;28;20173;-68
2023/06/15 06:38:47;;;;;;;1999.90;999.90;;;;;;;20.55;100.00;95364.72;5063693;28;20200;-70
2023/06/15 06:41:14;;;;;;;1999.90;999.90;;;;;;;20.61;100.00;95362.06;5063670;28;20170;-70
2023/06/15 06:43:39;;;;;;;1999.90;999.90;;;;;;;20.91;100.00;95367.31;5063671;28;20170;-70
2023/06/15 06:46:05;;;;;;;1999.90;999.90;;;;;;;20.85;100.00;95366.44;5063200;28;20174;-70
2023/06/15 06:48:31;;;;;;;1999.90;999.90;;;;;;;20.64;100.00;95367.44;5063616;28;20198;-70
2023/06/15 06:50:56;;;;;;;1999.90;999.90;;;;;;;20.72;100.00;95362.34;5063368;28;20217;-70
2023/06/15 06:53:21;;;;;;;1999.90;999.90;;;;;;;20.71;100.00;95367.09;5063416;28;20190;-70
2023/06/15 06:55:47;;;;;;;1999.90;999.90;;;;;;;20.94;100.00;95362.88;5064002;28;20166;-70
2023/06/15 06:58:13;;;;;;;1999.90;999.90;;;;;;;21.28;100.00;95357.56;5063388;28;20176;-71
2023/06/15 07:00:38;;;;;;;1999.90;999.90;;;;;;;21.28;100.00;95362.34;5063397;28;20166;-71
2023/06/15 07:03:04;;;;;;;1999.90;999.90;;;;;;;21.55;100.00;95360.16;5063453;28;20166;-70
2023/06/15 07:05:29;;;;;;;1999.90;999.90;;;;;;;21.75;100.00;95363.09;5063396;28;20196;-70
2023/06/15 07:07:54;;;;;;;1999.90;999.90;;;;;;;21.92;97.52;95358.63;5063362;28;20172;-71
2023/06/15 07:10:20;;;;;;;1999.90;999.90;;;;;;;21.97;100.00;95366.28;5063540;28;20248;-70
2023/06/15 07:12:45;;;;;;;1999.90;999.90;;;;;;;22.47;96.16;95364.38;5063351;28;20190;-70
2023/06/15 07:15:11;;;;;;;1999.90;999.90;;;;;;;23.08;91.17;95363.34;5062919;28;20174;-72
2023/06/15 07:17:36;;;;;;;1999.90;999.90;;;;;;;22.90;89.26;95362.84;5063362;28;20174;-71
2023/06/15 07:20:02;;;;;;;1999.90;999.90;;;;;;;23.34;87.81;95363.50;5063722;28;20178;-72
2023/06/15 07:22:28;;;;;;;1999.90;999.90;;;;;;;23.56;84.14;95366.56;5063368;28;20170;-65
2023/06/15 07:24:53;;;;;;;1999.90;999.90;;;;;;;24.61;82.41;95351.69;5063254;28;20181;-65
2023/06/15 07:27:19;;;;;;;1999.90;999.90;;;;;;;25.53;74.44;95363.28;5062950;28;20170;-64
2023/06/15 07:29:44;;;;;;;1999.90;999.90;;;;;;;26.27;68.26;95359.75;5063472;28;20205;-64
2023/06/15 07:32:10;;;;;;;1999.90;999.90;;;;;;;26.47;69.16;95351.09;5063151;28;20248;-64
2023/06/15 07:34:36;;;;;;;1999.90;999.90;;;;;;;26.23;64.07;95359.25;5063625;28;20175;-64
2023/06/15 07:37:01;;;;;;;1999.90;999.90;;;;;;;25.89;69.15;95360.38;5063052;28;20243;-63
2023/06/15 07:39:26;;;;;;;1999.90;999.90;;;;;;;26.29;66.90;95357.19;5062952;28;20224;-64
2023/06/15 07:41:52;;;;;;;1999.90;999.90;;;;;;;27.75;61.83;95350.47;5063894;28;20177;-64
2023/06/15 07:44:17;;;;;;;1999.90;999.90;;;;;;;28.73;54.56;95352.50;5063044;28;20181;-65
2023/06/15 07:46:43;;;;;;;1999.90;999.90;;;;;;;29.70;50.44;95351.31;5063592;28;20174;-64
2023/06/15 07:49:08;;;;;;;1999.90;999.90;;;;;;;30.00;46.90;95354.78;5063078;28;20174;-62
2023/06/15 07:51:35;;;;;;;1999.90;999.90;;;;;;;30.34;47.33;95353.84;5063459;28;20198;-64
2023/06/15 07:54:01;;;;;;;1999.90;999.90;;;;;;;31.41;43.91;95368.59;5063035;28;20246;-62
2023/06/15 07:56:26;;;;;;;1999.90;999.90;;;;;;;31.78;40.16;95374.84;5063509;28;20174;-62
2023/06/15 07:58:51;;;;;;;1999.90;999.90;;;;;;;31.39;39.93;95363.47;5066459;28;20174;-62
2023/06/15 08:01:17;;;;;;;1999.90;999.90;;;;;;;31.71;39.68;95367.00;5066591;28;20174;-65
2023/06/15 08:03:42;;;;;;;1999.90;999.90;;;;;;;31.25;40.17;95364.00;5067267;28;20174;-62
2023/06/15 08:06:08;;;;;;;1999.90;999.90;;;;;;;31.60;39.81;95364.38;5066892;28;20174;-62
2023/06/15 08:08:33;;;;;;;1999.90;999.90;;;;;;;31.94;39.22;95362.44;5066341;28;20177;-62
2023/06/15 08:10:58;;;;;;;1999.90;999.90;;;;;;;31.80;39.87;95363.78;5066693;28;20198;-61
2023/06/15 08:13:24;;;;;;;1999.90;999.90;;;;;;;29.34;41.19;95356.31;5066306;28;20243;-71
2023/06/15 08:15:50;;;;;;;1999.90;999.90;;;;;;;28.43;45.69;95365.75;5066131;28;20285;-71
2023/06/15 08:18:15;;;;;;;1999.90;999.90;;;;;;;30.56;40.38;95361.97;5066051;28;20220;-69
2023/06/15 08:20:41;;;;;;;1999.90;999.90;;;;;;;30.94;38.13;95363.47;5066654;28;20195;-70
2023/06/15 08:23:07;;;;;;;1999.90;999.90;;;;;;;31.85;37.13;95362.88;5066404;28;20170;-71
2023/06/15 08:25:34;;;;;;;1999.90;999.90;;;;;;;30.58;41.13;95364.25;5066105;28;20180;-71
2023/06/15 08:28:00;;;;;;;1999.90;999.90;;;;;;;30.84;41.51;95368.00;5066429;28;20200;-72
2023/06/15 08:30:26;;;;;;;1999.90;999.90;;;;;;;30.31;42.49;95356.97;5066315;28;20263;-71
2023/06/15 08:32:51;;;;;;;1999.90;999.90;;;;;;;30.67;42.22;95366.72;5066170;28;20238;-71
2023/06/15 08:35:16;;;;;;;1999.90;999.90;;;;;;;29.14;43.47;95367.25;5065751;28;20170;-72
2023/06/15 08:37:42;;;;;;;1999.90;999.90;;;;;;;29.72;46.41;95363.59;5065595;28;20180;-71
2023/06/15 08:40:08;;;;;;;1999.90;999.90;;;;;;;29.99;44.70;95370.19;5065599;28;20174;-72
2023/06/15 08:42:34;;;;;;;1999.90;999.90;;;;;;;29.09;46.08;95363.19;5065785;28;20228;-71
2023/06/15 08:45:04;;;;;;;1999.90;999.90;;;;;;;29.45;46.75;95361.03;5065304;28;20220;-71
2023/06/15 08:47:31;;;;;;;1999.90;999.90;;;;;;;30.14;44.29;95364.88;5066109;28;20170;-71
2023/06/15 08:49:59;;;;;;;1999.90;999.90;;;;;;;30.00;44.69;95360.44;5065875;28;20274;-73
2023/06/15 08:52:26;;;;;;;1999.90;999.90;;;;;;;31.23;40.89;95372.97;5065830;28;20174;-70
2023/06/15 08:54:52;;;;;;;1999.90;999.90;;;;;;;31.44;39.29;95370.34;5065453;28;20235;-70
2023/06/15 08:57:20;;;;;;;1999.90;999.90;;;;;;;31.58;39.42;95364.16;5066003;28;20173;-70
2023/06/15 08:59:45;;;;;;;1999.90;999.90;;;;;;;30.73;37.50;95373.81;5065408;28;20192;-70
2023/06/15 09:02:20;;;;;;;1999.90;999.90;;;;;;;29.97;41.83;95372.78;5065413;28;20170;-70
2023/06/15 09:04:47;;;;;;;1999.90;999.90;;;;;;;29.51;42.96;95370.22;5065784;28;20165;-69
2023/06/15 09:07:13;;;;;;;1999.90;999.90;;;;;;;28.87;42.48;95382.31;5065294;28;20162;-69
2023/06/15 09:09:38;;;;;;;1999.90;999.90;;;;;;;29.62;40.08;95378.56;5064792;28;20200;-69
2023/06/15 09:12:06;;;;;;;1999.90;999.90;;;;;;;30.07;39.54;95371.09;5065600;28;20173;-69
2023/06/15 09:14:39;;;;;;;1999.90;999.90;;;;;;;29.71;40.02;95366.97;5065000;28;20202;-71
2023/06/15 09:17:12;;;;;;;1999.90;999.90;;;;;;;28.62;42.87;95386.31;5065499;28;20319;-71
2023/06/15 09:19:38;;;;;;;1999.90;999.90;;;;;;;28.57;43.13;95378.66;5065541;28;20170;-72
2023/06/15 09:22:07;;;;;;;1999.90;999.90;;;;;;;28.85;41.81;95370.81;5064919;28;20231;-71
2023/06/15 09:24:39;;;;;;;1999.90;999.90;;;;;;;28.34;41.51;95378.78;5064961;28;20174;-71
2023/06/15 09:27:14;;;;;;;1999.90;999.90;;;;;;;30.05;38.23;95356.78;5065791;28;20241;-71
2023/06/15 09:29:40;;;;;;;1999.90;999.90;;;;;;;29.20;39.62;95365.16;5065257;28;20201;-68
2023/06/15 09:32:05;;;;;;;1999.90;999.90;;;;;;;28.66;40.33;95369.94;5064644;28;20251;-69
2023/06/15 09:34:31;;;;;;;1999.90;999.90;;;;;;;30.10;36.95;95361.59;5065168;28;20173;-68
2023/06/15 09:36:57;;;;;;;1999.90;999.90;;;;;;;28.70;41.55;95364.78;5064601;28;20291;-69
2023/06/15 09:39:23;;;;;;;1999.90;999.90;;;;;;;28.17;42.06;95363.31;5064666;28;20174;-68
2023/06/15 09:41:59;;;;;;;1999.90;999.90;;;;;;;29.06;42.58;95357.88;5065279;28;20177;-70
2023/06/15 09:44:25;;;;;;;1999.90;999.90;;;;;;;28.71;44.53;95358.66;5065120;28;20240;-68
2023/06/15 09:46:52;;;;;;;1999.90;999.90;;;;;;;28.60;46.67;95355.13;5065090;28;20204;-69
2023/06/15 09:49:23;;;;;;;1999.90;999.90;;;;;;;29.56;46.28;95349.66;5064503;28;20176;-70
2023/06/15 09:51:50;;;;;;;1999.90;999.90;;;;;;;31.09;38.36;95346.03;5064485;28;20170;-70
2023/06/15 09:54:20;;;;;;;1999.90;999.90;;;;;;;30.41;41.38;95344.78;5064447;28;20185;-70
2023/06/15 09:56:48;;;;;;;1999.90;999.90;;;;;;;29.24;39.49;95362.81;5064303;28;20165;-68
2023/06/15 09:59:13;;;;;;;1999.90;999.90;;;;;;;28.87;40.62;95363.38;5064244;28;20173;-68
2023/06/15 10:01:41;;;;;;;1999.90;999.90;;;;;;;28.61;41.31;95356.66;5064612;28;20205;-68
2023/06/15 10:04:07;;;;;;;1999.90;999.90;;;;;;;27.63;46.58;95348.97;5064571;28;20177;-68
2023/06/15 10:06:33;;;;;;;1999.90;999.90;;;;;;;28.38;43.60;95351.16;5064272;28;20170;-69
2023/06/15 10:09:00;;;;;;;1999.90;999.90;;;;;;;29.12;41.58;95352.94;5064601;28;20170;-70
2023/06/15 10:11:27;;;;;;;1999.90;999.90;;;;;;;29.04;38.93;95349.19;5064231;28;20194;-69
2023/06/15 10:14:02;;;;;;;1999.90;999.90;;;;;;;28.90;38.68;95355.91;5064543;28;20212;-69
2023/06/15 10:16:28;;;;;;;1999.90;999.90;;;;;;;30.88;35.21;95347.94;5063788;28;20258;-69
2023/06/15 10:19:05;;;;;;;1999.90;999.90;;;;;;;30.21;35.30;95348.16;5064381;28;20177;-69
2023/06/15 10:21:35;;;;;;;1999.90;999.90;;;;;;;29.77;37.34;95347.91;5063896;28;20193;-70
2023/06/15 10:24:05;;;;;;;1999.90;999.90;;;;;;;28.99;36.93;95349.97;5063400;28;20173;-69
2023/06/15 10:26:31;;;;;;;1999.90;999.90;;;;;;;29.03;36.13;95347.66;5064131;28;20172;-69
2023/06/15 10:29:03;;;;;;;1999.90;999.90;;;;;;;28.73;37.16;95352.50;5064150;28;20166;-71
2023/06/15 10:31:35;;;;;;;1999.90;999.90;;;;;;;28.03;39.37;95350.34;5064168;28;20212;-68
2023/06/15 10:34:06;;;;;;;1999.90;999.90;;;;;;;27.33;43.29;95342.44;5064220;28;20162;-68
2023/06/15 10:36:42;;;;;;;1999.90;999.90;;;;;;;27.48;44.65;95342.91;5064402;28;20170;-68
2023/06/15 10:39:24;;;;;;;1999.90;999.90;;;;;;;26.51;46.41;95337.63;5063688;28;20193;-69
2023/06/15 10:41:57;;;;;;;1999.90;999.90;;;;;;;26.06;48.22;95344.44;5063680;28;20196;-69
2023/06/15 10:44:30;;;;;;;1999.90;999.90;;;;;;;25.65;49.86;95346.06;5063567;28;20170;-69
2023/06/15 10:47:09;;;;;;;1999.90;999.90;;;;;;;25.53;50.62;95341.66;5064123;28;20170;-68